Time;durP1;ratioP1;P1;durP2;ratioP2;P2;SDS_P1;SDS_P2;PMS_P1;PMS_P2;Temp;Humidity;BMP_temperature;BMP_pressure;BME280_temperature;BME280_humidity;BME280_pressure;Samples;Min_cycle;Max_cycle;Signal;HPM_P1;HPM_P2
2022/05/12 00:01:02;;;;;;;12.48;8.77;;;;;;;;;;6218011;28;20067;-85
2022/05/12 00:04:02;;;;;;;15.45;9.15;;;;;;;;;;6193042;28;20376;-85
2022/05/12 00:07:03;;;;;;;13.93;8.83;;;;;;;;;;6198845;28;20045;-85
2022/05/12 00:10:04;;;;;;;14.05;8.60;;;;;;;;;;6200109;28;20285;-85
2022/05/12 00:13:04;;;;;;;13.93;8.50;;;;;;;;;;6217978;28;20034;-85
2022/05/12 00:16:05;;;;;;;14.73;9.10;;;;;;;;;;6200340;28;20436;-85
2022/05/12 00:19:05;;;;;;;12.43;8.20;;;;;;;;;;6218014;28;20465;-85
2022/05/12 00:22:05;;;;;;;15.43;8.27;;;;;;;;;;6200083;28;20083;-85
2022/05/12 00:25:09;;;;;;;12.85;8.10;;;;;;;;;;6202015;28;20025;-85
2022/05/12 00:28:09;;;;;;;16.25;8.73;;;;;;;;;;6193546;28;20045;-85
2022/05/12 00:31:10;;;;;;;13.38;9.25;;;;;;;;;;6217178;28;20026;-85
2022/05/12 00:34:11;;;;;;;13.97;8.37;;;;;;;;;;6217701;28;20469;-85
2022/05/12 00:37:11;;;;;;;17.45;8.63;;;;;;;;;;6198098;28;20755;-85
2022/05/12 00:40:12;;;;;;;17.07;10.57;;;;;;;;;;6217663;28;20442;-85
2022/05/12 00:43:31;;;;;;;14.10;8.17;;;;;;;;;;6199600;28;20363;-85
2022/05/12 00:46:35;;;;;;;12.93;8.07;;;;;;;;;;6199888;28;20613;-85
2022/05/12 00:49:37;;;;;;;13.10;8.85;;;;;;;;;;6211194;28;20071;-85
2022/05/12 00:52:38;;;;;;;13.15;8.45;;;;;;;;;;6217115;28;20026;-85
2022/05/12 00:55:40;;;;;;;15.15;7.65;;;;;;;;;;6217050;28;20033;-85
2022/05/12 00:58:40;;;;;;;11.45;7.88;;;;;;;;;;6217616;28;20393;-85
2022/05/12 01:01:40;;;;;;;17.13;7.70;;;;;;;;;;6216665;28;20029;-85
2022/05/12 01:04:41;;;;;;;16.23;8.00;;;;;;;;;;6217362;28;20026;-85
2022/05/12 01:07:41;;;;;;;14.02;9.00;;;;;;;;;;6202361;28;20273;-85
2022/05/12 01:10:44;;;;;;;11.90;7.70;;;;;;;;;;6220894;28;20065;-85
2022/05/12 01:13:47;;;;;;;11.40;8.25;;;;;;;;;;6216906;28;20044;-85
2022/05/12 01:16:49;;;;;;;14.68;7.95;;;;;;;;;;6216930;28;20436;-85
2022/05/12 01:19:51;;;;;;;13.55;8.60;;;;;;;;;;6217248;28;20443;-85
2022/05/12 01:22:53;;;;;;;16.17;8.77;;;;;;;;;;6217193;28;20046;-85
2022/05/12 01:25:54;;;;;;;15.32;8.88;;;;;;;;;;6200575;28;20026;-85
2022/05/12 01:28:55;;;;;;;14.47;8.20;;;;;;;;;;6199389;28;20075;-85
2022/05/12 01:31:55;;;;;;;13.32;7.93;;;;;;;;;;6216456;28;20097;-85
2022/05/12 01:34:55;;;;;;;13.07;7.97;;;;;;;;;;6199124;28;20146;-85
2022/05/12 01:37:56;;;;;;;15.13;8.20;;;;;;;;;;6218014;28;20276;-85
2022/05/12 01:40:56;;;;;;;12.00;8.13;;;;;;;;;;6216411;28;20030;-85
2022/05/12 01:43:56;;;;;;;13.47;7.87;;;;;;;;;;6212159;28;20773;-85
2022/05/12 01:46:57;;;;;;;12.95;7.38;;;;;;;;;;6194790;28;20748;-85
2022/05/12 01:49:57;;;;;;;12.68;6.90;;;;;;;;;;6216665;28;20029;-85
2022/05/12 01:52:57;;;;;;;10.10;6.23;;;;;;;;;;6216147;28;20026;-85
2022/05/12 01:55:58;;;;;;;8.57;5.90;;;;;;;;;;6194557;28;20270;-85
2022/05/12 01:58:59;;;;;;;11.60;6.15;;;;;;;;;;6216855;28;20389;-85
2022/05/12 02:01:59;;;;;;;12.00;6.07;;;;;;;;;;6202519;28;20014;-85
2022/05/12 02:04:59;;;;;;;11.40;7.15;;;;;;;;;;6220752;28;20700;-85
2022/05/12 02:08:00;;;;;;;10.65;6.65;;;;;;;;;;6206624;28;20029;-85
2022/05/12 02:11:00;;;;;;;8.77;6.05;;;;;;;;;;6207968;28;20562;-85
2022/05/12 02:14:01;;;;;;;9.68;6.25;;;;;;;;;;6202992;28;20018;-85
2022/05/12 02:17:02;;;;;;;9.88;5.63;;;;;;;;;;6220859;28;20026;-85
2022/05/12 02:20:02;;;;;;;11.30;6.30;;;;;;;;;;6220157;28;20018;-85
2022/05/12 02:23:03;;;;;;;13.77;6.60;;;;;;;;;;6205234;28;20026;-85
2022/05/12 02:26:03;;;;;;;11.00;5.93;;;;;;;;;;6215812;28;20457;-85
2022/05/12 02:29:04;;;;;;;8.50;6.23;;;;;;;;;;6220167;28;20033;-85
2022/05/12 02:32:04;;;;;;;8.48;6.00;;;;;;;;;;6219788;28;20601;-85
2022/05/12 02:35:05;;;;;;;15.80;6.95;;;;;;;;;;6202478;28;20124;-85
2022/05/12 02:38:06;;;;;;;12.07;6.05;;;;;;;;;;6201402;28;20469;-85
2022/05/12 02:41:06;;;;;;;11.50;6.43;;;;;;;;;;6208993;28;20022;-85
2022/05/12 02:44:07;;;;;;;11.35;7.03;;;;;;;;;;6202548;28;20467;-85
2022/05/12 02:47:07;;;;;;;9.52;6.38;;;;;;;;;;6219531;28;20034;-85
2022/05/12 02:50:08;;;;;;;14.02;6.50;;;;;;;;;;6202169;28;20026;-85
2022/05/12 02:53:08;;;;;;;12.95;6.85;;;;;;;;;;6201486;28;20034;-85
2022/05/12 02:56:09;;;;;;;9.60;5.97;;;;;;;;;;6219438;28;20066;-85
2022/05/12 02:59:10;;;;;;;11.02;6.07;;;;;;;;;;6201893;28;20265;-85
2022/05/12 03:02:10;;;;;;;12.60;6.20;;;;;;;;;;6200207;28;20418;-85
2022/05/12 03:05:11;;;;;;;12.68;6.40;;;;;;;;;;6219247;28;20026;-85
2022/05/12 03:08:12;;;;;;;11.95;5.72;;;;;;;;;;6222871;28;20435;-85
2022/05/12 03:11:12;;;;;;;8.25;5.63;;;;;;;;;;6223754;28;20116;-85
2022/05/12 03:14:12;;;;;;;8.13;5.53;;;;;;;;;;6218758;28;20029;-85
2022/05/12 03:17:12;;;;;;;10.17;5.37;;;;;;;;;;6218773;28;20025;-85
2022/05/12 03:20:14;;;;;;;9.80;5.30;;;;;;;;;;6201515;28;20264;-85
2022/05/12 03:23:15;;;;;;;10.75;5.88;;;;;;;;;;6220866;28;20693;-85
2022/05/12 03:26:15;;;;;;;9.45;6.50;;;;;;;;;;6218695;28;20022;-85
2022/05/12 03:29:16;;;;;;;8.20;6.00;;;;;;;;;;6218676;28;20106;-85
2022/05/12 03:32:16;;;;;;;11.07;6.57;;;;;;;;;;6200876;28;20385;-85
2022/05/12 03:35:18;;;;;;;13.13;6.57;;;;;;;;;;6218699;28;20017;-85
2022/05/12 03:38:19;;;;;;;9.70;5.93;;;;;;;;;;6205775;28;20660;-85
2022/05/12 03:41:20;;;;;;;11.43;5.85;;;;;;;;;;6200673;28;20024;-85
2022/05/12 03:47:39;;;;;;;11.77;6.35;;;;;;;;;;6218765;28;20030;-85
2022/05/12 03:50:40;;;;;;;9.50;6.18;;;;;;;;;;6218880;28;20405;-85
2022/05/12 03:53:40;;;;;;;10.13;5.88;;;;;;;;;;6218327;28;20029;-85
2022/05/12 03:56:42;;;;;;;12.03;5.57;;;;;;;;;;6218082;28;20578;-85
2022/05/12 03:59:42;;;;;;;;;;;;;;;;;;6195558;28;20336;-85
2022/05/12 04:02:43;;;;;;;11.38;6.40;;;;;;;;;;6218268;28;19906;-85
2022/05/12 04:05:43;;;;;;;11.93;5.70;;;;;;;;;;6200655;28;20393;-85
2022/05/12 04:08:43;;;;;;;9.63;6.50;;;;;;;;;;6222811;28;20686;-85
2022/05/12 04:11:43;;;;;;;8.60;5.33;;;;;;;;;;6217721;28;20120;-85
2022/05/12 04:14:44;;;;;;;11.50;5.70;;;;;;;;;;6200327;28;20289;-85
2022/05/12 04:17:45;;;;;;;11.45;6.70;;;;;;;;;;6218176;28;20363;-85
2022/05/12 04:20:45;;;;;;;12.68;6.07;;;;;;;;;;6218277;28;20025;-85
2022/05/12 04:23:45;;;;;;;11.63;6.93;;;;;;;;;;6203582;28;20392;-85
2022/05/12 04:26:46;;;;;;;10.32;6.60;;;;;;;;;;6217361;28;20029;-85
2022/05/12 04:29:46;;;;;;;8.95;6.18;;;;;;;;;;6217990;28;20025;-85
2022/05/12 04:32:46;;;;;;;11.97;6.37;;;;;;;;;;6210336;28;20022;-85
2022/05/12 04:35:46;;;;;;;12.77;6.00;;;;;;;;;;6208257;28;20007;-85
2022/05/12 04:38:47;;;;;;;9.88;5.68;;;;;;;;;;6191599;28;20289;-85
2022/05/12 04:41:47;;;;;;;8.50;5.25;;;;;;;;;;6196244;28;20021;-85
2022/05/12 04:44:47;;;;;;;8.67;4.97;;;;;;;;;;6210964;28;20028;-85
2022/05/12 04:47:48;;;;;;;10.60;4.87;;;;;;;;;;6210220;28;20155;-85
2022/05/12 04:50:48;;;;;;;11.20;4.30;;;;;;;;;;6198826;28;20081;-85
2022/05/12 04:53:48;;;;;;;8.10;5.07;;;;;;;;;;6199350;28;20133;-85
2022/05/12 04:56:48;;;;;;;11.47;5.80;;;;;;;;;;6201699;28;20022;-85
2022/05/12 04:59:49;;;;;;;14.83;5.57;;;;;;;;;;6200056;28;20093;-85
2022/05/12 05:02:49;;;;;;;7.30;4.60;;;;;;;;;;6199647;28;20446;-85
2022/05/12 05:05:50;;;;;;;8.97;4.33;;;;;;;;;;6202728;28;20021;-85
2022/05/12 05:08:50;;;;;;;8.33;4.63;;;;;;;;;;6204768;28;20509;-85
2022/05/12 05:11:51;;;;;;;9.30;4.97;;;;;;;;;;6196754;28;20022;-85
2022/05/12 05:14:51;;;;;;;9.83;5.20;;;;;;;;;;6187344;28;20060;-85
2022/05/12 05:17:51;;;;;;;7.27;3.97;;;;;;;;;;6214144;28;20469;-85
2022/05/12 05:20:52;;;;;;;11.00;4.43;;;;;;;;;;6205050;28;20472;-85
2022/05/12 05:23:52;;;;;;;7.00;3.63;;;;;;;;;;6197740;28;20045;-85
2022/05/12 05:26:52;;;;;;;9.50;4.40;;;;;;;;;;6215986;28;20388;-85
2022/05/12 05:29:53;;;;;;;6.10;4.43;;;;;;;;;;6210343;28;20017;-85
2022/05/12 05:32:54;;;;;;;12.07;4.83;;;;;;;;;;6215099;28;20028;-85
2022/05/12 05:35:54;;;;;;;6.32;3.70;;;;;;;;;;6219348;28;20483;-85
2022/05/12 05:38:54;;;;;;;6.73;3.93;;;;;;;;;;6225229;28;20026;-85
2022/05/12 05:41:57;;;;;;;7.17;4.17;;;;;;;;;;6203364;28;20022;-85
2022/05/12 05:44:57;;;;;;;9.32;4.35;;;;;;;;;;6201120;28;20026;-85
2022/05/12 05:47:58;;;;;;;;;;;;;;;;;;6196838;28;20099;-85
2022/05/12 05:54:17;;;;;;;9.55;3.70;;;;;;;;;;6206075;28;20026;-85
2022/05/12 05:57:17;;;;;;;;;;;;;;;;;;6204792;28;20049;-85
2022/05/12 06:00:18;;;;;;;10.52;3.95;;;;;;;;;;6204860;28;19909;-86
2022/05/12 06:03:18;;;;;;;3.60;2.53;;;;;;;;;;6208627;28;20027;-86
2022/05/12 06:06:19;;;;;;;12.32;4.18;;;;;;;;;;6212451;28;20049;-85
2022/05/12 06:09:20;;;;;;;9.15;3.47;;;;;;;;;;6220459;28;20049;-85
2022/05/12 06:12:20;;;;;;;;;;;;;;;;;;6197333;28;20033;-85
2022/05/12 06:15:21;;;;;;;7.82;3.92;;;;;;;;;;6207695;28;20336;-86
2022/05/12 06:18:21;;;;;;;7.00;4.03;;;;;;;;;;6194453;28;20586;-86
2022/05/12 06:21:21;;;;;;;;;;;;;;;;;;6199833;28;20473;-86
2022/05/12 06:24:21;;;;;;;9.63;3.67;;;;;;;;;;6206023;28;19909;-86
2022/05/12 06:27:22;;;;;;;9.30;3.57;;;;;;;;;;6190336;28;20423;-86
2022/05/12 06:30:22;;;;;;;8.57;4.15;;;;;;;;;;6201631;28;20033;-86
2022/05/12 06:33:22;;;;;;;11.20;4.53;;;;;;;;;;6218715;28;20108;-86
2022/05/12 06:36:23;;;;;;;11.07;3.77;;;;;;;;;;6207393;28;20166;-86
2022/05/12 06:39:23;;;;;;;7.75;3.95;;;;;;;;;;6215443;28;20026;-86
2022/05/12 06:42:24;;;;;;;11.07;4.67;;;;;;;;;;6219026;28;20026;-86
2022/05/12 06:45:24;;;;;;;10.67;4.03;;;;;;;;;;6197259;28;20072;-86
2022/05/12 06:48:24;;;;;;;5.93;3.37;;;;;;;;;;6201070;28;20030;-86
2022/05/12 06:51:25;;;;;;;7.75;3.83;;;;;;;;;;6218614;28;20384;-86
2022/05/12 06:54:25;;;;;;;5.53;3.23;;;;;;;;;;6218626;28;20029;-86
2022/05/12 06:57:28;;;;;;;8.07;4.00;;;;;;;;;;6219292;28;20022;-86
2022/05/12 07:00:28;;;;;;;11.63;3.70;;;;;;;;;;6218679;28;20018;-86
2022/05/12 07:03:29;;;;;;;9.52;3.88;;;;;;;;;;6217677;28;20084;-86
2022/05/12 07:06:29;;;;;;;6.38;3.60;;;;;;;;;;6200784;28;20026;-86
2022/05/12 07:09:31;;;;;;;7.28;3.75;;;;;;;;;;6224876;28;20045;-86
2022/05/12 07:12:31;;;;;;;6.00;4.13;;;;;;;;;;6199548;28;20049;-86
2022/05/12 07:15:31;;;;;;;9.13;4.20;;;;;;;;;;6211383;28;20465;-85
2022/05/12 07:18:34;;;;;;;7.87;3.70;;;;;;;;;;6194141;28;20048;-85
2022/05/12 07:28:13;;;;;;;8.35;3.95;;;;;;;;;;6214286;28;20029;-86
2022/05/12 07:31:14;;;;;;;;;;;;;;;;;;6199695;28;20024;-86
2022/05/12 07:34:14;;;;;;;8.68;3.30;;;;;;;;;;6211665;28;19972;-85
2022/05/12 07:37:15;;;;;;;8.10;3.30;;;;;;;;;;6208481;28;20129;-86
2022/05/12 07:40:15;;;;;;;;;;;;;;;;;;6213551;28;20033;-86
2022/05/12 07:43:16;;;;;;;7.60;3.90;;;;;;;;;;6218292;28;19909;-86
2022/05/12 07:46:16;;;;;;;;;;;;;;;;;;6213983;28;20040;-86
2022/05/12 07:49:16;;;;;;;6.28;3.80;;;;;;;;;;6218858;28;19966;-86
2022/05/12 07:52:16;;;;;;;;;;;;;;;;;;6218774;28;20439;-86
2022/05/12 07:55:16;;;;;;;8.03;3.40;;;;;;;;;;6201170;28;19919;-86
2022/05/12 07:58:17;;;;;;;;;;;;;;;;;;6193929;28;20022;-86
2022/05/12 08:01:17;;;;;;;7.22;3.42;;;;;;;;;;6190453;28;19917;-85
2022/05/12 08:04:18;;;;;;;10.40;4.53;;;;;;;;;;6206588;28;20037;-86
2022/05/12 08:07:18;;;;;;;9.20;4.00;;;;;;;;;;6213186;28;20010;-86
2022/05/12 08:10:19;;;;;;;8.30;4.77;;;;;;;;;;6197136;28;20289;-85
2022/05/12 08:13:19;;;;;;;;;;;;;;;;;;6212316;28;20063;-85
2022/05/12 08:16:20;;;;;;;8.60;3.45;;;;;;;;;;6209456;28;19983;-86
2022/05/12 08:19:20;;;;;;;10.13;3.67;;;;;;;;;;6212280;28;20029;-86
2022/05/12 08:22:21;;;;;;;;;;;;;;;;;;6207385;28;20113;-86
2022/05/12 08:25:21;;;;;;;13.73;4.27;;;;;;;;;;6207065;28;20541;-86
2022/05/12 08:28:21;;;;;;;;;;;;;;;;;;6196258;28;20082;-86
2022/05/12 08:31:27;;;;;;;7.78;4.55;;;;;;;;;;6198334;28;19913;-86
2022/05/12 08:34:28;;;;;;;6.93;2.92;;;;;;;;;;6195450;28;20025;-86
2022/05/12 08:37:28;;;;;;;6.53;2.05;;;;;;;;;;6212744;28;20381;-86
2022/05/12 08:40:40;;;;;;;10.70;3.00;;;;;;;;;;6193451;28;20045;-86
2022/05/12 08:43:44;;;;;;;8.15;2.65;;;;;;;;;;6183364;28;20412;-86
2022/05/12 08:46:53;;;;;;;5.55;2.42;;;;;;;;;;6199599;28;20029;-86
2022/05/12 08:49:53;;;;;;;12.60;4.38;;;;;;;;;;6214024;28;20074;-86
2022/05/12 08:52:54;;;;;;;;;;;;;;;;;;6190405;28;20026;-85
2022/05/12 08:55:57;;;;;;;8.82;2.80;;;;;;;;;;6209509;28;19905;-86
2022/05/12 08:58:59;;;;;;;8.02;2.45;;;;;;;;;;6197478;28;20322;-86
2022/05/12 09:01:59;;;;;;;7.65;2.72;;;;;;;;;;6199395;28;20021;-86
2022/05/12 09:05:00;;;;;;;6.93;3.17;;;;;;;;;;6197623;28;20033;-86
2022/05/12 09:08:00;;;;;;;5.30;2.65;;;;;;;;;;6202223;28;20400;-86
2022/05/12 09:11:06;;;;;;;5.40;2.90;;;;;;;;;;6204835;28;20123;-86
2022/05/12 09:14:11;;;;;;;4.50;2.90;;;;;;;;;;6216646;28;20333;-86
2022/05/12 09:17:23;;;;;;;6.57;3.13;;;;;;;;;;6199248;28;20022;-86
2022/05/12 09:20:25;;;;;;;8.98;3.08;;;;;;;;;;6199044;28;20018;-86
2022/05/12 09:23:26;;;;;;;7.10;2.65;;;;;;;;;;6199817;28;20025;-86
2022/05/12 09:26:29;;;;;;;9.93;3.97;;;;;;;;;;6200969;28;20022;-86
2022/05/12 09:29:31;;;;;;;6.75;3.08;;;;;;;;;;6216294;28;20022;-86
2022/05/12 09:32:33;;;;;;;5.03;2.33;;;;;;;;;;6193149;28;20019;-86
2022/05/12 09:35:35;;;;;;;15.23;3.05;;;;;;;;;;6215281;28;20018;-86
2022/05/12 09:38:40;;;;;;;8.98;3.72;;;;;;;;;;6201790;28;20014;-86
2022/05/12 09:41:42;;;;;;;6.85;2.28;;;;;;;;;;6216948;28;20018;-86
2022/05/12 09:44:51;;;;;;;12.48;3.55;;;;;;;;;;6198364;28;20026;-86
2022/05/12 09:48:27;;;;;;;7.70;3.10;;;;;;;;;;6198158;28;20409;-86
2022/05/12 09:51:29;;;;;;;2.53;1.75;;;;;;;;;;6119408;28;20109;-85
2022/05/12 09:54:30;;;;;;;5.47;2.75;;;;;;;;;;6216302;28;20022;-85
2022/05/12 09:57:31;;;;;;;21.97;3.67;;;;;;;;;;6216000;28;20029;-86
2022/05/12 10:00:32;;;;;;;;;;;;;;;;;;6209854;28;20071;-86
2022/05/12 10:10:23;;;;;;;8.82;2.97;;;;;;;;;;6221888;28;20451;-86
2022/05/12 10:13:29;;;;;;;14.00;3.50;;;;;;;;;;6214955;28;20018;-86
2022/05/12 10:16:30;;;;;;;11.10;3.40;;;;;;;;;;6216117;28;20018;-85
2022/05/12 10:19:31;;;;;;;10.13;3.30;;;;;;;;;;6198451;28;20435;-85
2022/05/12 10:22:33;;;;;;;13.48;3.42;;;;;;;;;;6220935;28;20066;-85
2022/05/12 10:25:58;;;;;;;7.93;2.88;;;;;;;;;;6217485;28;20422;-85
2022/05/12 10:29:08;;;;;;;9.38;2.92;;;;;;;;;;6212756;28;20014;-85
2022/05/12 10:32:27;;;;;;;7.32;2.95;;;;;;;;;;6199846;28;20026;-85
2022/05/12 10:35:33;;;;;;;8.88;3.25;;;;;;;;;;6201837;28;20037;-85
2022/05/12 10:38:38;;;;;;;6.07;2.42;;;;;;;;;;6206268;28;20114;-85
2022/05/12 10:41:39;;;;;;;11.82;3.50;;;;;;;;;;6213698;28;20029;-85
2022/05/12 10:44:39;;;;;;;6.32;2.78;;;;;;;;;;6206699;28;20430;-85
2022/05/12 10:47:46;;;;;;;6.77;2.70;;;;;;;;;;6206968;28;20022;-85
2022/05/12 10:50:50;;;;;;;4.65;3.15;;;;;;;;;;6191905;28;20632;-85
2022/05/12 10:54:09;;;;;;;5.60;2.78;;;;;;;;;;6219281;28;20030;-86
2022/05/12 10:57:30;;;;;;;7.15;2.65;;;;;;;;;;6195070;28;20029;-85
2022/05/12 11:00:44;;;;;;;10.03;2.17;;;;;;;;;;6195444;28;20529;-85
2022/05/12 11:03:48;;;;;;;8.10;2.42;;;;;;;;;;6216274;28;20272;-85
2022/05/12 11:06:51;;;;;;;20.02;2.97;;;;;;;;;;6201978;28;20045;-85
2022/05/12 11:09:59;;;;;;;9.05;2.83;;;;;;;;;;6222876;28;20112;-85
2022/05/12 11:13:02;;;;;;;14.55;2.55;;;;;;;;;;6205256;28;20027;-85
2022/05/12 11:16:05;;;;;;;10.05;2.70;;;;;;;;;;6218415;28;20066;-85
2022/05/12 11:19:14;;;;;;;15.60;3.20;;;;;;;;;;6219421;28;20022;-84
2022/05/12 11:22:20;;;;;;;10.02;2.15;;;;;;;;;;6204167;28;20263;-84
2022/05/12 11:25:30;;;;;;;13.10;2.65;;;;;;;;;;6209892;28;20030;-84
2022/05/12 11:32:09;;;;;;;8.93;2.95;;;;;;;;;;6203354;28;20505;-85
2022/05/12 11:35:09;;;;;;;;;;;;;;;;;;6188868;28;20041;-85
2022/05/12 11:38:29;;;;;;;12.93;2.63;;;;;;;;;;6192702;28;19952;-85
2022/05/12 11:41:35;;;;;;;15.88;3.17;;;;;;;;;;6214886;28;20462;-85
2022/05/12 11:44:43;;;;;;;7.47;2.25;;;;;;;;;;6199222;28;20159;-85
2022/05/12 11:47:50;;;;;;;8.75;2.75;;;;;;;;;;6192696;28;20022;-85
2022/05/12 11:50:59;;;;;;;11.57;3.92;;;;;;;;;;6201239;28;20022;-85
2022/05/12 11:54:26;;;;;;;7.15;2.97;;;;;;;;;;6207105;28;20358;-85
2022/05/12 11:57:29;;;;;;;6.90;2.63;;;;;;;;;;6191878;28;20033;-85
2022/05/12 12:00:33;;;;;;;8.95;2.85;;;;;;;;;;6202249;28;20051;-85
2022/05/12 12:03:36;;;;;;;8.50;3.40;;;;;;;;;;6206107;28;20034;-85
2022/05/12 12:06:48;;;;;;;9.13;2.90;;;;;;;;;;6194524;28;20030;-85
2022/05/12 12:09:50;;;;;;;8.75;3.58;;;;;;;;;;6195082;28;20059;-85
2022/05/12 12:12:52;;;;;;;9.20;2.90;;;;;;;;;;6215562;28;20030;-85
2022/05/12 12:15:55;;;;;;;9.38;3.10;;;;;;;;;;6202810;28;20018;-85
2022/05/12 12:19:01;;;;;;;6.22;2.85;;;;;;;;;;6196263;28;20022;-85
2022/05/12 12:22:20;;;;;;;8.57;2.67;;;;;;;;;;6209392;28;20415;-85
2022/05/12 12:25:31;;;;;;;8.63;2.67;;;;;;;;;;6201779;28;20026;-85
2022/05/12 12:28:36;;;;;;;11.45;3.35;;;;;;;;;;6211411;28;20021;-85
2022/05/12 12:31:37;;;;;;;21.40;3.40;;;;;;;;;;6209981;28;20015;-85
2022/05/12 12:34:44;;;;;;;10.65;3.35;;;;;;;;;;6214817;28;20030;-85
2022/05/12 12:37:45;;;;;;;10.27;3.53;;;;;;;;;;6220011;28;20365;-86
2022/05/12 12:40:46;;;;;;;7.28;3.17;;;;;;;;;;6200363;28;20018;-86
2022/05/12 12:43:49;;;;;;;9.23;2.80;;;;;;;;;;6203970;28;20091;-85
2022/05/12 12:47:08;;;;;;;15.65;4.05;;;;;;;;;;6211818;28;20022;-86
2022/05/12 12:50:28;;;;;;;7.03;2.75;;;;;;;;;;6192503;28;20289;-86
2022/05/12 12:56:47;;;;;;;12.55;3.15;;;;;;;;;;6203223;28;20406;-85
2022/05/12 12:59:58;;;;;;;8.50;2.80;;;;;;;;;;6201022;28;20028;-86
2022/05/12 13:02:58;;;;;;;;;;;;;;;;;;6193598;28;20410;-86
2022/05/12 13:06:12;;;;;;;5.72;3.03;;;;;;;;;;6203982;28;19909;-86
2022/05/12 13:09:13;;;;;;;11.55;3.85;;;;;;;;;;6195069;28;20065;-86
2022/05/12 13:12:18;;;;;;;11.07;3.20;;;;;;;;;;6184689;28;20034;-86
2022/05/12 13:15:19;;;;;;;7.70;3.03;;;;;;;;;;6210829;28;20124;-86
2022/05/12 13:18:24;;;;;;;7.60;2.05;;;;;;;;;;6192738;28;20525;-86
2022/05/12 13:21:28;;;;;;;5.35;2.30;;;;;;;;;;6209191;28;20033;-86
2022/05/12 13:24:28;;;;;;;13.02;2.38;;;;;;;;;;6190946;28;20370;-85
2022/05/12 13:27:35;;;;;;;9.38;2.88;;;;;;;;;;6186243;28;20422;-86
2022/05/12 13:30:40;;;;;;;11.90;3.10;;;;;;;;;;6194430;28;20048;-86
2022/05/12 13:33:59;;;;;;;14.77;3.42;;;;;;;;;;6191744;28;20036;-86
2022/05/12 13:37:16;;;;;;;4.65;2.30;;;;;;;;;;6208905;28;20520;-86
2022/05/12 13:40:55;;;;;;;7.10;2.42;;;;;;;;;;6209896;28;20090;-85
2022/05/12 13:44:21;;;;;;;9.52;2.45;;;;;;;;;;6212033;28;20026;-86
2022/05/12 13:47:27;;;;;;;13.57;2.67;;;;;;;;;;6191454;28;20042;-85
2022/05/12 13:50:42;;;;;;;6.68;2.08;;;;;;;;;;6198399;28;20041;-86
2022/05/12 13:53:47;;;;;;;6.20;2.35;;;;;;;;;;6181511;28;20432;-86
2022/05/12 13:56:48;;;;;;;6.22;2.55;;;;;;;;;;6186827;28;20811;-85
2022/05/12 13:59:55;;;;;;;5.13;2.20;;;;;;;;;;6206798;28;20103;-85
2022/05/12 14:03:12;;;;;;;8.57;2.40;;;;;;;;;;6202556;28;20038;-85
2022/05/12 14:06:14;;;;;;;7.55;2.42;;;;;;;;;;6220277;28;20180;-86
2022/05/12 14:09:16;;;;;;;5.93;1.60;;;;;;;;;;6206328;28;20645;-86
2022/05/12 14:12:21;;;;;;;6.53;1.50;;;;;;;;;;6211289;28;20040;-85
2022/05/12 14:22:17;;;;;;;5.55;2.45;;;;;;;;;;6211177;28;20030;-85
2022/05/12 14:25:17;;;;;;;6.00;1.40;;;;;;;;;;6216135;28;20119;-85
2022/05/12 14:28:19;;;;;;;7.45;1.88;;;;;;;;;;6210462;28;20540;-86
2022/05/12 14:31:21;;;;;;;7.85;2.10;;;;;;;;;;6193701;28;20074;-86
2022/05/12 14:34:22;;;;;;;6.85;1.55;;;;;;;;;;6219558;28;20032;-86
2022/05/12 14:37:22;;;;;;;;;;;;;;;;;;6225344;28;20026;-86
2022/05/12 14:40:23;;;;;;;7.67;1.83;;;;;;;;;;6201343;28;19996;-86
2022/05/12 14:43:23;;;;;;;10.43;1.70;;;;;;;;;;6201868;28;20036;-86
2022/05/12 14:46:25;;;;;;;;;;;;;;;;;;6213649;28;20030;-85
2022/05/12 14:49:37;;;;;;;3.30;1.60;;;;;;;;;;6198909;28;19909;-86
2022/05/12 14:52:37;;;;;;;7.03;1.77;;;;;;;;;;6197235;28;20026;-86
2022/05/12 14:55:37;;;;;;;;;;;;;;;;;;6216685;28;20022;-85
2022/05/12 14:58:37;;;;;;;6.03;2.03;;;;;;;;;;6207255;28;19917;-86
2022/05/12 15:01:38;;;;;;;;;;;;;;;;;;6205427;28;20018;-86
2022/05/12 15:04:38;;;;;;;4.47;1.83;;;;;;;;;;6215096;28;19944;-86
2022/05/12 15:07:39;;;;;;;10.85;1.88;;;;;;;;;;6199490;28;20113;-86
2022/05/12 15:10:39;;;;;;;7.72;2.03;;;;;;;;;;6218264;28;20459;-86
2022/05/12 15:13:40;;;;;;;5.53;1.93;;;;;;;;;;6199797;28;20030;-86
2022/05/12 15:16:40;;;;;;;5.63;1.75;;;;;;;;;;6217183;28;20022;-86
2022/05/12 15:19:40;;;;;;;7.33;1.60;;;;;;;;;;6200057;28;20018;-86
2022/05/12 15:22:41;;;;;;;4.43;1.97;;;;;;;;;;6200646;28;20276;-86
2022/05/12 15:25:43;;;;;;;4.15;1.50;;;;;;;;;;6198849;28;20852;-86
2022/05/12 15:28:44;;;;;;;2.33;1.35;;;;;;;;;;6217049;28;20473;-86
2022/05/12 15:31:44;;;;;;;4.15;1.48;;;;;;;;;;6199735;28;20021;-86
2022/05/12 15:34:45;;;;;;;8.33;2.23;;;;;;;;;;6198734;28;20085;-86
2022/05/12 15:37:45;;;;;;;3.10;1.83;;;;;;;;;;6212918;28;20014;-86
2022/05/12 15:40:45;;;;;;;9.00;1.33;;;;;;;;;;6215713;28;20111;-86
2022/05/12 15:43:46;;;;;;;7.32;1.33;;;;;;;;;;6217074;28;20166;-86
2022/05/12 15:47:10;;;;;;;4.97;1.60;;;;;;;;;;6216521;28;20022;-86
2022/05/12 15:50:13;;;;;;;2.65;1.10;;;;;;;;;;6216104;28;20472;-86
2022/05/12 15:53:17;;;;;;;8.15;1.73;;;;;;;;;;6210566;28;20025;-86
2022/05/12 15:56:17;;;;;;;4.63;1.40;;;;;;;;;;6201080;28;20018;-86
2022/05/12 15:59:18;;;;;;;1.73;1.07;;;;;;;;;;6198910;28;20025;-86
2022/05/12 16:02:21;;;;;;;7.07;1.90;;;;;;;;;;6202330;28;20029;-86
2022/05/12 16:05:22;;;;;;;9.18;2.20;;;;;;;;;;6198243;28;20385;-86
2022/05/12 16:08:22;;;;;;;1.80;1.30;;;;;;;;;;6222468;28;20018;-86
2022/05/12 16:11:36;;;;;;;4.27;1.10;;;;;;;;;;6199977;28;20025;-86
2022/05/12 16:14:47;;;;;;;17.10;2.63;;;;;;;;;;6198996;28;20448;-86
2022/05/12 16:17:47;;;;;;;7.13;2.13;;;;;;;;;;6197560;28;20026;-85
2022/05/12 16:20:47;;;;;;;11.63;1.10;;;;;;;;;;6216495;28;20057;-85
2022/05/12 16:23:47;;;;;;;4.67;1.23;;;;;;;;;;6220643;28;20021;-85
2022/05/12 16:26:50;;;;;;;3.93;1.67;;;;;;;;;;6215524;28;20089;-85
2022/05/12 16:29:57;;;;;;;5.65;1.48;;;;;;;;;;6216326;28;20053;-86
2022/05/12 16:32:57;;;;;;;7.65;1.58;;;;;;;;;;6215875;28;20029;-86
2022/05/12 16:35:58;;;;;;;3.50;1.83;;;;;;;;;;6216411;28;20018;-86
2022/05/12 16:38:58;;;;;;;2.83;1.30;;;;;;;;;;6201128;28;20441;-86
2022/05/12 16:41:58;;;;;;;3.50;1.43;;;;;;;;;;6215843;28;20021;-85
2022/05/12 16:44:58;;;;;;;3.63;1.40;;;;;;;;;;6215115;28;20088;-86
2022/05/12 16:48:02;;;;;;;5.17;1.20;;;;;;;;;;6197798;28;20029;-86
2022/05/12 16:51:03;;;;;;;0.90;0.90;;;;;;;;;;6197584;28;20104;-85
2022/05/12 16:54:03;;;;;;;4.23;1.20;;;;;;;;;;6197633;28;20032;-86
2022/05/12 16:57:05;;;;;;;3.23;1.07;;;;;;;;;;6197334;28;20548;-86
2022/05/12 17:00:06;;;;;;;2.30;1.10;;;;;;;;;;6214851;28;20021;-86
2022/05/12 17:03:06;;;;;;;;;;;;;;;;;;6192163;28;20053;-86
2022/05/12 17:06:07;;;;;;;3.08;1.15;;;;;;;;;;6199059;28;19924;-86
2022/05/12 17:09:11;;;;;;;6.87;1.80;;;;;;;;;;6216762;28;20041;-85
2022/05/12 17:12:12;;;;;;;6.85;1.60;;;;;;;;;;6215716;28;20532;-86
2022/05/12 17:15:15;;;;;;;3.63;1.17;;;;;;;;;;6196753;28;20017;-86
2022/05/12 17:18:15;;;;;;;7.85;1.30;;;;;;;;;;6215047;28;20036;-86
2022/05/12 17:21:15;;;;;;;2.40;1.03;;;;;;;;;;6197266;28;20043;-85
2022/05/12 17:24:16;;;;;;;4.87;1.80;;;;;;;;;;6198869;28;20059;-85
2022/05/12 17:27:16;;;;;;;11.93;1.33;;;;;;;;;;6214777;28;20026;-86
2022/05/12 17:30:18;;;;;;;11.53;1.90;;;;;;;;;;6210671;28;20048;-86
2022/05/12 17:33:18;;;;;;;5.30;1.40;;;;;;;;;;6209716;28;20469;-86
2022/05/12 17:36:19;;;;;;;5.37;2.13;;;;;;;;;;6217952;28;20045;-86
2022/05/12 17:39:19;;;;;;;4.55;1.02;;;;;;;;;;6192756;28;20434;-85
2022/05/12 17:42:20;;;;;;;6.57;1.40;;;;;;;;;;6182029;28;20063;-86
2022/05/12 17:45:20;;;;;;;3.03;1.17;;;;;;;;;;6201000;28;20034;-86
2022/05/12 17:48:20;;;;;;;7.30;1.53;;;;;;;;;;6196645;28;20449;-86
2022/05/12 17:51:21;;;;;;;6.43;1.63;;;;;;;;;;6202905;28;20033;-87
2022/05/12 17:54:21;;;;;;;4.53;1.70;;;;;;;;;;6186436;28;20033;-86
2022/05/12 17:57:21;;;;;;;10.77;2.20;;;;;;;;;;6197316;28;20025;-86
2022/05/12 18:00:22;;;;;;;6.33;1.40;;;;;;;;;;6204297;28;20112;-86
2022/05/12 18:03:23;;;;;;;3.92;1.40;;;;;;;;;;6195445;28;20030;-86
2022/05/12 18:06:23;;;;;;;2.07;1.10;;;;;;;;;;6182814;28;20022;-86
2022/05/12 18:09:24;;;;;;;6.07;1.53;;;;;;;;;;6202199;28;20101;-86
2022/05/12 18:12:25;;;;;;;6.60;1.40;;;;;;;;;;6215466;28;20092;-86
2022/05/12 18:15:25;;;;;;;3.50;1.93;;;;;;;;;;6189487;28;20025;-86
2022/05/12 18:18:25;;;;;;;6.70;1.20;;;;;;;;;;6195019;28;20032;-86
2022/05/12 18:21:25;;;;;;;4.87;1.40;;;;;;;;;;6188579;28;20030;-86
2022/05/12 18:24:26;;;;;;;10.20;1.70;;;;;;;;;;6212294;28;20030;-87
2022/05/12 18:27:26;;;;;;;4.53;1.90;;;;;;;;;;6196997;28;20042;-86
2022/05/12 18:30:27;;;;;;;8.27;1.90;;;;;;;;;;6215650;28;20026;-86
2022/05/12 18:33:27;;;;;;;8.10;2.23;;;;;;;;;;6215421;28;20078;-86
2022/05/12 18:36:28;;;;;;;8.30;2.20;;;;;;;;;;6197073;28;20018;-86
2022/05/12 18:39:28;;;;;;;9.57;1.70;;;;;;;;;;6190090;28;20014;-86
2022/05/12 18:42:28;;;;;;;4.00;1.13;;;;;;;;;;6198491;28;20014;-86
2022/05/12 18:45:28;;;;;;;9.77;1.60;;;;;;;;;;6200690;28;20048;-86
2022/05/12 18:48:29;;;;;;;5.83;1.60;;;;;;;;;;6195781;28;20113;-86
2022/05/12 18:51:29;;;;;;;2.70;1.60;;;;;;;;;;6206346;28;20473;-86